Etusivu
METAR-TAF:

METAR-TAF

Lentoasemat :

Vesisaari, Norja

Leveyspiiri: 70-04N, Pituuspiiri: 029-51E, korkeus merenpinnasta: 3 m

Tämänhetkinen sää

Tämä raportti tehtiin 57 minuuttia sitten, kello 22.50 UTC
Tuuli 12 kn etelästä/lounaasta, vaihdellen etelän ja lännen/lounaan välillä
Lämpötila -11°C
Kosteus 78%
Ilmanpaine 1012 hPa
Näkyvyys 10 km tai enemmän
Muutamia pilviä 1000 ft:n korkeudessa

METAR: ENVD 172250Z 21012KT 170V240 9999 FEW010 M11/M14 Q1012

Aika: 00:47 (23:47 UTC)

Sääennuste

Tämä raportti tehtiin 3 tuntia ja 47 minuuttia sitten, kello 20.00 UTC
Ennuste voimassa 17. päivästä klo 21 UTC - 17. päivään klo 24 UTC
Tuuli 12 kn lounaasta
Näkyvyys 10 km tai enemmän
Muutamia pilviä 1500 ft:n korkeudessa
Todennäköisyys 30% :
Ajoittain
17. päivästä klo 21 UTC - 17. päivään klo 24 UTC
Hajonneita pilviä 1400 ft:n korkeudessa

TAF: ENVD 172000Z 1721/1724 23012KT 9999 FEW015 PROB30 TEMPO 1721/1724 BKN014

Säähavainnot ja -ennusteet yli 4000 lentoasemalta (METAR- ja TAF-raportit).

Käytössä olevat sääasemat on merkitty karttaan keltaisilla ja punaisilla pisteillä.

Aseta hiiri pisteen päälle nähdäksesi sääaseman nimen.

Klikkaa sitten nähdäksesi säähavainnot ja -ennusteet.

Kartan vaihtaminen: klikkaa mustalla rastilla varustettuja vihreitä pisteitä, niin voit zoomata sisään; viivalla varustettua vihreää pistettä, niin voit zoomata ulos tai vihreitä nuolia, niin pääset viereisille kartoille.


METAR-TAF: